Time;durP1;ratioP1;P1;durP2;ratioP2;P2;SDS_P1;SDS_P2;PMS_P1;PMS_P2;Temp;Humidity;BMP_temperature;BMP_pressure;BME280_temperature;BME280_humidity;BME280_pressure;Samples;Min_cycle;Max_cycle;Signal;HPM_P1;HPM_P2
2023/06/08 00:01:57;;;;;;;43.35;7.20;;;;;;;23.10;62.44;99587.25;7316231;19;129840;-41
2023/06/08 00:04:22;;;;;;;96.90;10.23;;;;;;;23.10;62.73;99574.16;7313920;19;129136;-40
2023/06/08 00:06:49;;;;;;;33.27;6.97;;;;;;;23.11;62.72;99569.69;7314305;19;129784;-40
2023/06/08 00:09:16;;;;;;;53.30;8.00;;;;;;;23.08;63.14;99568.22;7314625;19;129122;-41
2023/06/08 00:11:41;;;;;;;59.17;8.65;;;;;;;23.09;62.07;99563.78;7315250;19;128958;-39
2023/06/08 00:14:07;;;;;;;45.00;7.10;;;;;;;23.07;62.87;99555.25;7315067;19;128888;-39
2023/06/08 00:16:34;;;;;;;49.07;7.53;;;;;;;23.07;62.26;99560.50;7315363;19;130171;-41
2023/06/08 00:19:00;;;;;;;52.28;7.93;;;;;;;23.09;62.41;99550.66;7315059;19;131186;-41
2023/06/08 00:21:29;;;;;;;44.00;7.07;;;;;;;23.00;62.50;99538.47;7314381;19;130514;-39
2023/06/08 00:23:55;;;;;;;35.70;6.90;;;;;;;23.08;62.62;99547.25;7315360;19;129589;-39
2023/06/08 00:26:22;;;;;;;23.30;6.43;;;;;;;23.04;62.94;99538.00;7314765;19;129674;-39
2023/06/08 00:28:48;;;;;;;47.85;7.75;;;;;;;23.09;62.39;99543.63;7314810;19;129174;-40
2023/06/08 00:31:15;;;;;;;60.50;8.45;;;;;;;23.09;62.66;99542.78;7314864;19;129384;-42
2023/06/08 00:33:40;;;;;;;;;;;;;;;23.15;62.60;99536.97;7315437;19;130553;-41
2023/06/08 00:36:06;;;;;;;50.65;8.13;;;;;;;23.10;62.78;99544.47;7316701;19;129694;-40
2023/06/08 00:38:31;;;;;;;38.17;7.30;;;;;;;23.09;62.17;99540.19;7315374;19;129203;-40
2023/06/08 00:40:57;;;;;;;60.75;8.27;;;;;;;23.08;63.06;99542.00;7313392;19;129153;-40
2023/06/08 00:43:22;;;;;;;47.67;8.40;;;;;;;23.11;62.93;99540.84;7315149;19;130963;-41
2023/06/08 00:45:47;;;;;;;42.93;8.57;;;;;;;23.08;62.75;99538.53;7313479;19;129585;-40
2023/06/08 00:48:15;;;;;;;63.08;8.35;;;;;;;23.08;62.57;99535.91;7313071;19;130545;-42
2023/06/08 00:50:41;;;;;;;60.00;8.50;;;;;;;22.99;62.50;99511.41;7312794;19;129485;-40
2023/06/08 00:53:07;;;;;;;37.87;7.77;;;;;;;23.10;63.08;99523.47;7314478;19;129403;-41
2023/06/08 00:55:33;;;;;;;43.20;8.23;;;;;;;23.10;62.77;99518.25;7311853;19;129507;-43
2023/06/08 00:58:00;;;;;;;57.60;8.98;;;;;;;23.11;62.78;99519.88;7313412;19;130363;-41
2023/06/08 01:00:27;;;;;;;;;;;;;;;23.18;62.83;99520.94;7314854;19;129543;-42
2023/06/08 01:02:53;;;;;;;43.55;8.02;;;;;;;23.12;62.61;99518.91;7316113;19;128972;-40
2023/06/08 01:05:18;;;;;;;63.53;8.73;;;;;;;23.01;62.37;99506.03;7311989;19;129467;-40
2023/06/08 01:08:10;;;;;;;42.30;7.70;;;;;;;23.13;62.61;99517.94;7315348;19;129454;-41
2023/06/08 01:10:44;;;;;;;108.78;11.75;;;;;;;23.10;62.54;99508.59;7310393;19;129730;-41
2023/06/08 01:13:21;;;;;;;89.13;9.98;;;;;;;23.11;63.21;99512.00;7314493;19;129628;-41
2023/06/08 01:15:51;;;;;;;83.65;9.98;;;;;;;23.12;63.08;99511.06;7313037;19;129280;-40
2023/06/08 01:18:23;;;;;;;44.40;7.95;;;;;;;23.11;63.14;99512.00;7315249;19;129594;-40
2023/06/08 01:21:26;;;;;;;42.85;7.80;;;;;;;23.11;63.31;99510.22;7311915;19;129370;-40
2023/06/08 01:24:00;;;;;;;27.73;6.88;;;;;;;23.10;62.86;99502.50;7313267;19;129353;-41
2023/06/08 01:26:28;;;;;;;76.70;9.65;;;;;;;23.11;62.61;99509.38;7312507;19;129534;-39
2023/06/08 01:28:55;;;;;;;35.42;7.70;;;;;;;23.10;62.58;99502.50;7313707;19;130358;-42
2023/06/08 01:31:20;;;;;;;;;;;;;;;23.16;62.37;99502.72;7313711;19;129348;-41
2023/06/08 01:33:46;;;;;;;30.98;7.10;;;;;;;23.11;62.36;99497.09;7314384;19;128951;-40
2023/06/08 01:36:22;;;;;;;40.27;7.60;;;;;;;23.13;63.01;99496.94;7313294;19;129303;-39
2023/06/08 01:39:08;;;;;;;23.33;6.87;;;;;;;23.12;62.95;99490.06;7313931;19;129620;-42
2023/06/08 01:41:38;;;;;;;38.67;7.28;;;;;;;22.97;63.13;99471.41;7314139;19;129199;-40
2023/06/08 01:44:06;;;;;;;40.97;7.40;;;;;;;23.10;62.83;99486.78;7311285;19;131011;-40
2023/06/08 01:46:32;;;;;;;57.97;8.30;;;;;;;23.00;62.79;99470.28;7310237;19;130420;-40
2023/06/08 01:49:01;;;;;;;40.80;7.70;;;;;;;22.99;63.02;99468.66;7313730;19;129604;-40
2023/06/08 01:51:28;;;;;;;42.03;7.63;;;;;;;23.07;62.96;99477.38;7313532;19;130994;-41
2023/06/08 01:54:01;;;;;;;31.98;6.90;;;;;;;23.09;62.49;99480.69;7312179;19;129254;-42
2023/06/08 01:56:30;;;;;;;83.70;10.02;;;;;;;23.07;62.53;99466.91;7312710;19;129511;-41
2023/06/08 01:58:56;;;;;;;45.97;8.15;;;;;;;22.98;62.49;99462.59;7312032;19;129232;-39
2023/06/08 02:01:21;;;;;;;22.73;6.90;;;;;;;23.10;62.28;99471.88;7312663;19;129048;-40
2023/06/08 02:03:46;;;;;;;34.42;7.25;;;;;;;23.09;62.33;99474.63;7312591;19;129220;-40
2023/06/08 02:06:12;;;;;;;57.55;8.15;;;;;;;23.07;62.39;99461.66;7312920;19;129166;-42
2023/06/08 02:08:38;;;;;;;47.20;7.00;;;;;;;23.10;62.72;99471.03;7311751;19;129237;-40
2023/06/08 02:11:04;;;;;;;44.40;7.53;;;;;;;23.09;62.96;99472.81;7313850;19;129422;-42
2023/06/08 02:13:30;;;;;;;41.67;7.40;;;;;;;23.09;62.71;99469.38;7311115;19;129832;-40
2023/06/08 02:15:55;;;;;;;56.10;8.50;;;;;;;23.10;62.78;99478.91;7313293;19;129268;-41
2023/06/08 02:18:21;;;;;;;63.07;8.67;;;;;;;23.10;63.13;99471.03;7312865;19;129338;-40
2023/06/08 02:20:46;;;;;;;36.58;6.95;;;;;;;23.07;62.86;99469.53;7313116;19;129206;-41
2023/06/08 02:23:12;;;;;;;27.08;6.97;;;;;;;23.07;62.72;99471.34;7313091;19;128920;-40
2023/06/08 02:25:37;;;;;;;59.07;8.57;;;;;;;23.03;63.10;99459.50;7308876;19;129078;-39
2023/06/08 02:28:03;;;;;;;46.47;7.47;;;;;;;23.06;63.09;99464.44;7313697;19;129956;-41
2023/06/08 02:30:28;;;;;;;106.65;11.30;;;;;;;23.09;62.53;99472.00;7308911;19;129069;-39
2023/06/08 02:32:53;;;;;;;37.93;7.07;;;;;;;23.08;62.99;99472.97;7311947;19;130494;-41
2023/06/08 02:35:19;;;;;;;73.27;9.30;;;;;;;23.10;63.06;99476.28;7309400;19;130276;-41
2023/06/08 02:37:45;;;;;;;41.80;8.07;;;;;;;23.09;62.45;99469.38;7311874;19;131120;-39
2023/06/08 02:40:10;;;;;;;71.45;9.63;;;;;;;23.10;62.68;99474.50;7310892;19;129194;-41
2023/06/08 02:42:35;;;;;;;62.28;8.60;;;;;;;23.07;62.99;99474.78;7311608;19;129742;-39
2023/06/08 02:45:01;;;;;;;53.33;8.37;;;;;;;23.07;62.95;99469.53;7310234;19;129042;-40
2023/06/08 02:47:26;;;;;;;54.47;8.83;;;;;;;23.01;62.46;99456.19;7311554;19;129882;-42
2023/06/08 02:49:52;;;;;;;35.38;7.72;;;;;;;23.07;62.81;99466.91;7311615;19;129046;-40
2023/06/08 02:52:17;;;;;;;104.77;11.80;;;;;;;23.06;62.71;99469.69;7309946;19;129258;-41
2023/06/08 02:54:42;;;;;;;76.68;9.55;;;;;;;23.08;63.00;99480.84;7311209;19;129749;-41
2023/06/08 02:57:08;;;;;;;55.35;8.40;;;;;;;23.07;62.87;99472.16;7311697;19;129211;-41
2023/06/08 02:59:33;;;;;;;34.03;7.50;;;;;;;22.98;62.52;99457.34;7312338;19;129892;-42
2023/06/08 03:01:59;;;;;;;82.83;9.93;;;;;;;23.08;62.62;99478.22;7308292;19;128893;-41
2023/06/08 03:04:26;;;;;;;37.47;8.00;;;;;;;23.09;63.08;99472.00;7310635;19;131160;-39
2023/06/08 03:06:53;;;;;;;38.70;8.52;;;;;;;23.08;62.64;99467.75;7309304;19;129337;-41
2023/06/08 03:09:20;;;;;;;46.22;8.57;;;;;;;23.07;62.94;99468.72;7310587;19;130184;-40
2023/06/08 03:11:47;;;;;;;53.92;8.98;;;;;;;23.06;62.58;99474.94;7310759;19;129415;-39
2023/06/08 03:14:12;;;;;;;45.05;7.57;;;;;;;23.08;62.26;99483.47;7309424;19;129236;-41
2023/06/08 03:16:37;;;;;;;58.35;8.90;;;;;;;23.08;62.84;99472.97;7310448;19;129728;-41
2023/06/08 03:19:03;;;;;;;46.47;8.07;;;;;;;23.07;62.22;99476.59;7307306;19;130061;-41
2023/06/08 03:21:28;;;;;;;72.07;8.87;;;;;;;23.07;62.03;99482.63;7308156;19;129330;-40
2023/06/08 03:23:56;;;;;;;48.00;8.47;;;;;;;23.08;62.65;99483.47;7310249;19;129857;-40
2023/06/08 03:26:22;;;;;;;41.30;8.15;;;;;;;23.05;62.50;99482.00;7309856;19;129680;-41
2023/06/08 03:28:47;;;;;;;49.85;8.80;;;;;;;23.08;62.39;99480.84;7309530;19;129549;-39
2023/06/08 03:31:13;;;;;;;65.65;9.23;;;;;;;23.09;62.11;99485.09;7310661;19;129256;-41
2023/06/08 03:33:39;;;;;;;45.95;8.68;;;;;;;23.07;62.79;99477.38;7309269;19;129736;-42
2023/06/08 03:36:04;;;;;;;36.10;7.57;;;;;;;23.09;62.98;99490.34;7310440;19;130323;-38
2023/06/08 03:38:30;;;;;;;51.35;8.57;;;;;;;23.06;62.04;99488.03;7309472;19;129142;-42
2023/06/08 03:40:55;;;;;;;55.83;8.20;;;;;;;23.07;62.70;99498.38;7311091;19;128730;-41
2023/06/08 03:43:21;;;;;;;35.47;7.35;;;;;;;23.07;62.81;99487.09;7310165;19;129109;-42
2023/06/08 03:45:46;;;;;;;85.13;9.77;;;;;;;22.99;62.48;99474.72;7307835;19;129132;-40
2023/06/08 03:48:11;;;;;;;83.80;9.77;;;;;;;23.08;62.17;99478.22;7304351;19;129601;-42
2023/06/08 03:50:37;;;;;;;83.13;9.18;;;;;;;23.09;63.13;99475.44;7308348;19;129289;-41
2023/06/08 03:53:02;;;;;;;61.08;8.85;;;;;;;23.08;62.33;99478.22;7307879;19;131512;-39
2023/06/08 03:55:28;;;;;;;51.85;7.75;;;;;;;23.01;62.69;99466.69;7305930;19;129605;-40
2023/06/08 03:57:54;;;;;;;53.97;8.30;;;;;;;23.08;62.36;99478.22;7308864;19;129199;-42
2023/06/08 04:00:20;;;;;;;67.70;9.70;;;;;;;23.08;62.37;99475.59;7309592;19;130234;-42
2023/06/08 04:02:46;;;;;;;48.07;8.33;;;;;;;23.08;62.74;99478.22;7307086;19;130977;-40
2023/06/08 04:05:13;;;;;;;42.97;8.02;;;;;;;23.08;62.06;99472.97;7304196;19;130212;-40
2023/06/08 04:07:38;;;;;;;;;;;;;;;23.13;62.58;99475.97;7310225;19;129321;-41
2023/06/08 04:10:04;;;;;;;29.83;7.15;;;;;;;23.09;61.44;99474.63;7308467;19;130916;-40
2023/06/08 04:12:31;;;;;;;39.87;7.87;;;;;;;22.94;62.39;99457.81;7304997;19;130541;-40
2023/06/08 04:14:57;;;;;;;36.92;7.28;;;;;;;23.01;62.81;99472.75;7307737;19;131048;-41
2023/06/08 04:17:23;;;;;;;68.22;9.05;;;;;;;23.01;62.60;99474.56;7310760;19;129916;-41
2023/06/08 04:19:49;;;;;;;56.85;8.75;;;;;;;23.00;62.46;99478.16;7314843;19;129688;-41
2023/06/08 04:22:14;;;;;;;40.23;7.40;;;;;;;22.99;62.63;99484.41;7315565;19;129259;-42
2023/06/08 04:24:40;;;;;;;45.67;8.18;;;;;;;23.01;62.33;99471.94;7313589;19;130283;-41
2023/06/08 04:27:08;;;;;;;51.57;7.83;;;;;;;23.00;62.51;99475.53;7315652;19;129236;-40
2023/06/08 04:29:34;;;;;;;59.33;8.15;;;;;;;23.01;61.95;99479.81;7315368;19;128976;-39
2023/06/08 04:31:59;;;;;;;35.47;7.23;;;;;;;22.91;63.00;99468.56;7315553;19;129733;-38
2023/06/08 04:34:25;;;;;;;33.25;7.68;;;;;;;22.97;62.11;99484.50;7314464;19;129348;-40
2023/06/08 04:36:51;;;;;;;60.63;9.00;;;;;;;22.89;62.75;99473.16;7316274;19;128914;-40
2023/06/08 04:39:16;;;;;;;48.00;8.27;;;;;;;22.99;62.18;99487.00;7313241;19;129034;-40
2023/06/08 04:41:44;;;;;;;41.13;7.75;;;;;;;22.99;62.89;99482.56;7315140;19;129303;-42
2023/06/08 04:44:13;;;;;;;77.40;10.43;;;;;;;23.03;62.91;99486.56;7311512;19;130102;-39
2023/06/08 04:46:41;;;;;;;65.80;9.38;;;;;;;23.04;62.45;99482.13;7314122;19;128979;-40
2023/06/08 04:49:07;;;;;;;58.60;9.43;;;;;;;23.04;62.32;99487.34;7312310;19;129526;-39
2023/06/08 04:51:32;;;;;;;25.70;7.40;;;;;;;23.04;62.74;99474.25;7313949;19;131357;-39
2023/06/08 04:54:01;;;;;;;39.47;8.52;;;;;;;23.06;62.42;99474.94;7314979;19;129449;-41
2023/06/08 04:56:29;;;;;;;62.72;9.57;;;;;;;23.05;62.59;99473.28;7314972;19;129153;-41
2023/06/08 04:58:57;;;;;;;54.10;9.82;;;;;;;23.05;62.64;99462.81;7296972;19;131164;-41
2023/06/08 05:01:23;;;;;;;54.38;9.35;;;;;;;23.07;62.69;99471.34;7311266;19;130266;-40
2023/06/08 05:03:49;;;;;;;;;;;;;;;23.12;62.19;99474.34;7312573;19;130914;-39
2023/06/08 05:06:14;;;;;;;104.78;12.02;;;;;;;23.06;62.44;99474.94;7313098;19;129051;-40
2023/06/08 05:08:40;;;;;;;55.45;9.60;;;;;;;23.07;62.09;99460.84;7310400;19;131044;-37
2023/06/08 05:11:05;;;;;;;38.80;8.83;;;;;;;23.05;62.20;99470.66;7314405;19;132224;-40
2023/06/08 05:13:30;;;;;;;40.70;9.10;;;;;;;22.97;62.35;99465.38;7312047;19;129243;-42
2023/06/08 05:15:58;;;;;;;57.22;8.98;;;;;;;23.04;62.65;99476.88;7314327;19;129401;-40
2023/06/08 05:18:25;;;;;;;71.90;10.43;;;;;;;23.06;62.57;99482.78;7313102;19;129477;-41
2023/06/08 05:20:50;;;;;;;;;;;;;;;23.13;62.15;99481.22;7309062;19;130464;-41
2023/06/08 05:23:15;;;;;;;38.13;7.87;;;;;;;23.07;62.14;99481.84;7313526;19;129863;-41
2023/06/08 05:25:41;;;;;;;50.37;8.60;;;;;;;23.05;62.64;99478.53;7307984;19;129878;-40
2023/06/08 05:28:06;;;;;;;31.15;7.20;;;;;;;23.04;62.50;99476.88;7312957;19;129785;-40
2023/06/08 05:30:32;;;;;;;62.97;10.07;;;;;;;23.05;62.84;99474.13;7309841;19;129387;-39
2023/06/08 05:32:57;;;;;;;54.13;9.55;;;;;;;22.94;62.76;99460.44;7313332;19;129153;-40
2023/06/08 05:35:22;;;;;;;62.80;9.95;;;;;;;23.05;62.20;99473.28;7310557;19;129355;-41
2023/06/08 05:37:48;;;;;;;37.93;8.37;;;;;;;23.05;62.58;99468.88;7315335;19;130011;-38
2023/06/08 05:40:14;;;;;;;52.67;9.37;;;;;;;23.05;62.31;99465.41;7310815;19;129471;-41
2023/06/08 05:42:40;;;;;;;64.95;10.15;;;;;;;23.00;63.00;99454.56;7312308;19;129977;-42
2023/06/08 05:45:08;;;;;;;74.07;10.35;;;;;;;23.03;62.59;99475.22;7308081;19;130313;-38
2023/06/08 05:47:34;;;;;;;25.33;8.63;;;;;;;23.04;62.44;99482.13;7312569;19;129295;-42
2023/06/08 05:49:59;;;;;;;151.30;14.38;;;;;;;22.92;62.66;99452.69;7310349;19;129304;-40
2023/06/08 05:52:25;;;;;;;62.97;9.33;;;;;;;23.04;62.85;99474.25;7312547;19;129298;-40
2023/06/08 05:54:50;;;;;;;53.07;9.00;;;;;;;23.04;62.66;99474.25;7311485;19;129144;-37
2023/06/08 05:57:16;;;;;;;18.43;7.53;;;;;;;23.05;62.85;99470.66;7312157;19;129235;-41
2023/06/08 05:59:41;;;;;;;61.28;9.35;;;;;;;23.03;62.68;99480.47;7313443;19;129391;-40
2023/06/08 06:02:06;;;;;;;65.43;9.40;;;;;;;23.04;62.37;99482.13;7306359;19;129603;-41
2023/06/08 06:04:32;;;;;;;35.78;8.00;;;;;;;23.05;62.60;99483.78;7313890;19;129141;-40
2023/06/08 06:06:57;;;;;;;42.28;8.23;;;;;;;23.04;63.20;99479.50;7310339;19;129556;-41
2023/06/08 06:09:23;;;;;;;35.42;8.48;;;;;;;23.05;62.41;99483.78;7313704;19;129680;-38
2023/06/08 06:11:48;;;;;;;45.17;9.60;;;;;;;23.04;63.16;99487.34;7310930;19;129826;-41
2023/06/08 06:14:13;;;;;;;44.73;8.67;;;;;;;23.04;62.58;99484.72;7313426;19;129008;-40
2023/06/08 06:16:39;;;;;;;49.03;9.40;;;;;;;23.01;62.56;99485.03;7311608;19;129639;-41
2023/06/08 06:19:04;;;;;;;42.53;8.77;;;;;;;23.05;63.00;99491.66;7312482;19;128966;-38
2023/06/08 06:21:30;;;;;;;65.40;10.43;;;;;;;23.04;63.24;99493.44;7310293;19;129390;-39
2023/06/08 06:23:55;;;;;;;36.60;9.50;;;;;;;23.05;63.08;99499.50;7314028;19;129453;-40
2023/06/08 06:26:20;;;;;;;74.82;10.60;;;;;;;23.03;62.78;99497.03;7311690;19;130786;-40
2023/06/08 06:28:46;;;;;;;45.85;9.77;;;;;;;23.04;62.72;99498.69;7311014;19;130535;-40
2023/06/08 06:31:11;;;;;;;64.10;10.07;;;;;;;23.03;63.27;99498.84;7312654;19;129632;-40
2023/06/08 06:33:36;;;;;;;42.60;9.10;;;;;;;23.04;63.24;99503.09;7310900;19;129844;-40
2023/06/08 06:36:02;;;;;;;39.23;9.40;;;;;;;23.04;62.95;99503.09;7313131;19;129028;-40
2023/06/08 06:38:27;;;;;;;31.90;9.30;;;;;;;23.04;62.80;99497.84;7310209;19;130244;-40
2023/06/08 06:40:53;;;;;;;43.00;8.63;;;;;;;23.01;63.03;99498.97;7311699;19;130400;-41
2023/06/08 06:43:22;;;;;;;34.85;7.80;;;;;;;23.03;63.02;99502.28;7311733;19;128936;-40
2023/06/08 06:45:51;;;;;;;55.33;10.30;;;;;;;23.01;62.96;99498.97;7312269;19;129109;-41
2023/06/08 06:48:19;;;;;;;26.60;7.80;;;;;;;22.92;63.62;99483.34;7311804;19;130500;-41
2023/06/08 06:50:44;;;;;;;40.55;8.75;;;;;;;23.02;62.83;99502.44;7312710;19;129513;-40
2023/06/08 06:53:10;;;;;;;36.70;9.07;;;;;;;22.91;63.37;99487.75;7313371;19;130089;-42
2023/06/08 06:55:35;;;;;;;51.97;9.40;;;;;;;23.01;62.94;99501.59;7311087;19;128879;-40
2023/06/08 06:58:02;;;;;;;49.37;9.60;;;;;;;22.95;63.21;99493.53;7312961;19;129174;-40
2023/06/08 07:00:29;;;;;;;87.22;12.15;;;;;;;23.03;63.71;99504.06;7311587;19;129166;-41
2023/06/08 07:02:56;;;;;;;34.25;8.95;;;;;;;23.00;62.90;99502.59;7312871;19;129303;-41
2023/06/08 07:05:21;;;;;;;39.53;9.00;;;;;;;23.03;63.23;99506.69;7309841;19;129225;-42
2023/06/08 07:07:46;;;;;;;51.25;9.15;;;;;;;23.04;62.80;99509.16;7308160;19;130207;-42
2023/06/08 07:10:12;;;;;;;53.80;9.43;;;;;;;23.08;62.75;99504.44;7312586;19;129976;-41
2023/06/08 07:12:37;;;;;;;41.03;8.67;;;;;;;23.08;62.88;99507.91;7311508;19;128949;-40
2023/06/08 07:15:03;;;;;;;35.17;8.67;;;;;;;23.09;62.91;99495.59;7309205;19;128850;-41
2023/06/08 07:17:28;;;;;;;57.80;10.40;;;;;;;23.17;62.66;99503.56;7311990;19;129549;-42
2023/06/08 07:19:54;;;;;;;62.47;9.93;;;;;;;23.15;62.65;99505.50;7311526;19;129327;-40
2023/06/08 07:22:19;;;;;;;35.10;8.00;;;;;;;23.26;62.00;99502.63;7310884;19;129737;-41
2023/06/08 07:24:45;;;;;;;35.43;8.93;;;;;;;23.24;62.66;99504.56;7310263;19;128933;-40
2023/06/08 07:27:10;;;;;;;61.17;10.13;;;;;;;23.23;62.70;99503.78;7309869;19;129724;-41
2023/06/08 07:29:36;;;;;;;45.03;8.43;;;;;;;23.21;62.38;99510.13;7311797;19;129366;-38
2023/06/08 07:32:01;;;;;;;23.73;7.55;;;;;;;23.27;62.64;99501.66;7310183;19;128904;-39
2023/06/08 07:34:27;;;;;;;37.60;8.17;;;;;;;23.35;62.39;99506.16;7310183;19;128906;-39
2023/06/08 07:36:53;;;;;;;51.38;7.90;;;;;;;23.31;62.50;99505.66;7312502;19;130172;-41
2023/06/08 07:39:18;;;;;;;36.78;7.90;;;;;;;23.35;61.41;99501.75;7312079;19;129090;-39
2023/06/08 07:41:43;;;;;;;23.42;8.25;;;;;;;23.40;61.96;99503.91;7310213;19;130315;-42
2023/06/08 07:44:09;;;;;;;57.97;9.10;;;;;;;23.46;61.82;99500.66;7309565;19;129791;-40
2023/06/08 07:46:34;;;;;;;53.38;8.77;;;;;;;23.52;60.88;99508.75;7310306;19;129898;-40
2023/06/08 07:48:59;;;;;;;32.87;8.37;;;;;;;23.46;61.58;99504.13;7310615;19;129251;-40
2023/06/08 07:51:25;;;;;;;66.23;9.93;;;;;;;23.54;61.38;99506.78;7313792;19;128813;-40
2023/06/08 07:53:50;;;;;;;51.63;8.77;;;;;;;23.39;60.99;99487.34;7317434;19;128951;-42
2023/06/08 07:56:15;;;;;;;73.68;9.35;;;;;;;23.55;60.67;99508.44;7318218;19;129397;-40
2023/06/08 07:58:41;;;;;;;48.15;9.30;;;;;;;23.49;61.08;99514.31;7316443;19;129219;-39
2023/06/08 08:01:06;;;;;;;31.50;7.15;;;;;;;23.42;61.45;99502.75;7316668;19;128793;-40
2023/06/08 08:03:36;;;;;;;62.13;9.20;;;;;;;23.51;62.03;99509.72;7316517;19;129105;-41
2023/06/08 08:06:02;;;;;;;40.28;8.43;;;;;;;23.44;60.43;99492.94;7317795;19;130570;-40
2023/06/08 08:08:27;;;;;;;18.23;6.80;;;;;;;23.51;61.11;99507.09;7316671;19;129306;-40
2023/06/08 08:10:53;;;;;;;46.73;9.07;;;;;;;23.45;60.72;99493.78;7316458;19;128888;-42
2023/06/08 08:13:18;;;;;;;64.57;9.97;;;;;;;23.49;60.74;99495.94;7316504;19;129225;-42
2023/06/08 08:15:45;;;;;;;35.15;7.80;;;;;;;23.53;60.43;99493.81;7315335;19;129493;-40
2023/06/08 08:18:12;;;;;;;80.88;9.60;;;;;;;23.63;60.18;99505.88;7316602;19;130703;-39
2023/06/08 08:20:38;;;;;;;42.53;8.48;;;;;;;23.62;60.46;99504.22;7317009;19;129037;-41
2023/06/08 08:23:03;;;;;;;69.00;9.13;;;;;;;23.63;60.83;99511.13;7316253;19;128749;-38
2023/06/08 08:25:28;;;;;;;52.17;8.98;;;;;;;23.66;60.69;99497.69;7315391;19;129863;-40
2023/06/08 08:27:54;;;;;;;42.33;8.57;;;;;;;23.58;61.17;99502.91;7315151;19;129916;-39
2023/06/08 08:30:19;;;;;;;52.30;9.17;;;;;;;23.65;60.43;99498.66;7315930;19;129991;-41
2023/06/08 08:32:45;;;;;;;53.50;9.17;;;;;;;23.65;60.24;99509.16;7316441;19;129406;-41
2023/06/08 08:35:10;;;;;;;33.85;8.00;;;;;;;23.63;60.21;99502.44;7314459;19;129526;-39
2023/06/08 08:37:36;;;;;;;19.30;6.93;;;;;;;23.67;60.27;99498.53;7316767;19;129310;-41
2023/06/08 08:40:02;;;;;;;41.30;8.85;;;;;;;23.73;60.02;99506.59;7315893;19;128901;-41
2023/06/08 08:42:30;;;;;;;50.28;7.97;;;;;;;23.68;60.31;99506.25;7316095;19;128985;-41
2023/06/08 08:44:57;;;;;;;38.25;7.97;;;;;;;23.69;60.14;99514.91;7315159;19;129628;-42
2023/06/08 08:47:24;;;;;;;47.95;7.85;;;;;;;23.63;60.79;99511.13;7314552;19;129875;-40
2023/06/08 08:50:06;;;;;;;48.67;8.57;;;;;;;23.59;61.06;99511.56;7316543;19;129284;-42
2023/06/08 08:52:37;;;;;;;45.03;7.60;;;;;;;23.56;60.10;99502.22;7315860;19;128934;-42
2023/06/08 08:55:04;;;;;;;61.65;8.45;;;;;;;23.63;60.68;99505.03;7313868;19;129256;-41
2023/06/08 08:57:32;;;;;;;34.08;7.20;;;;;;;23.75;59.96;99495.94;7315979;19;131071;-41
2023/06/08 08:59:58;;;;;;;46.80;7.50;;;;;;;23.70;59.50;99495.59;7315282;19;128897;-39
2023/06/08 09:02:24;;;;;;;64.40;9.23;;;;;;;23.67;60.56;99496.69;7313394;19;128959;-41
2023/06/08 09:04:52;;;;;;;59.83;8.63;;;;;;;23.77;59.33;99497.41;7313546;19;129535;-40
2023/06/08 09:07:19;;;;;;;60.25;8.48;;;;;;;23.64;60.57;99486.53;7313620;19;129435;-41
2023/06/08 09:10:14;;;;;;;90.55;9.77;;;;;;;23.63;60.34;99479.63;7313469;19;130281;-41
2023/06/08 09:12:47;;;;;;;36.75;7.25;;;;;;;23.66;60.74;99492.44;7315722;19;129654;-41
2023/06/08 09:15:23;;;;;;;33.42;6.93;;;;;;;23.63;60.53;99484.88;7311990;19;129207;-42
2023/06/08 09:17:50;;;;;;;39.25;7.40;;;;;;;23.70;60.33;99485.88;7316614;19;130222;-40
2023/06/08 09:20:27;;;;;;;37.70;7.82;;;;;;;23.75;61.28;99488.06;7315072;19;129092;-38
2023/06/08 09:22:53;;;;;;;48.50;7.82;;;;;;;23.72;60.03;99490.97;7315403;19;130971;-41
2023/06/08 09:25:47;;;;;;;45.90;7.30;;;;;;;23.71;60.86;99484.94;7312807;19;129093;-39
2023/06/08 09:28:25;;;;;;;40.25;7.43;;;;;;;23.77;60.13;99476.41;7313065;19;129249;-39
2023/06/08 09:30:52;;;;;;;30.50;6.70;;;;;;;23.84;59.54;99477.44;7314260;19;128856;-40
2023/06/08 09:33:24;;;;;;;;;;;;;;;23.77;61.04;99465.91;7316303;19;129892;-41
2023/06/08 09:35:59;;;;;;;42.00;7.38;;;;;;;23.73;60.43;99475.09;7314370;19;129986;-42
2023/06/08 09:38:26;;;;;;;31.20;7.38;;;;;;;23.62;59.95;99472.72;7315186;19;129304;-39
2023/06/08 09:41:11;;;;;;;64.18;8.38;;;;;;;23.63;61.15;99478.81;7313184;19;129383;-41
2023/06/08 09:43:36;;;;;;;31.55;7.55;;;;;;;23.68;60.21;99472.13;7315603;19;128890;-40
2023/06/08 09:46:01;;;;;;;51.63;8.43;;;;;;;23.74;59.69;99481.16;7313957;19;129504;-41
2023/06/08 09:48:27;;;;;;;36.47;7.23;;;;;;;23.75;59.46;99473.13;7314783;19;129243;-38
2023/06/08 09:51:02;;;;;;;42.07;7.77;;;;;;;23.72;60.40;99473.44;7314128;19;129696;-39
2023/06/08 09:53:33;;;;;;;51.08;7.90;;;;;;;23.64;60.35;99469.94;7314599;19;129481;-39
2023/06/08 09:55:59;;;;;;;36.28;6.65;;;;;;;23.68;60.18;99466.88;7314605;19;129396;-42
2023/06/08 09:58:25;;;;;;;27.05;6.50;;;;;;;23.74;59.88;99466.22;7313448;19;131107;-42
2023/06/08 10:00:55;;;;;;;64.75;8.50;;;;;;;23.70;60.14;99462.25;7313925;19;129137;-40
2023/06/08 10:03:28;;;;;;;63.67;8.77;;;;;;;23.71;60.89;99465.72;7313724;19;130181;-39
2023/06/08 10:05:57;;;;;;;44.58;7.45;;;;;;;23.71;59.79;99458.69;7314355;19;130079;-42
2023/06/08 10:08:26;;;;;;;35.78;6.57;;;;;;;23.76;59.58;99459.03;7311121;19;130016;-40
2023/06/08 10:10:51;;;;;;;12.68;6.07;;;;;;;23.81;59.77;99455.94;7312801;19;129096;-41
2023/06/08 10:13:17;;;;;;;80.10;8.77;;;;;;;23.78;59.42;99462.31;7312528;19;129835;-41
2023/06/08 10:15:43;;;;;;;30.13;6.22;;;;;;;23.78;59.52;99456.25;7311678;19;129046;-41
2023/06/08 10:18:09;;;;;;;34.67;7.07;;;;;;;23.70;60.21;99454.38;7312734;19;130027;-41
2023/06/08 10:20:35;;;;;;;46.30;7.87;;;;;;;23.70;60.77;99451.75;7313382;19;129412;-40
2023/06/08 10:23:04;;;;;;;64.03;8.63;;;;;;;23.75;59.85;99452.13;7313050;19;129443;-39
2023/06/08 10:25:30;;;;;;;43.63;7.25;;;;;;;23.86;59.88;99448.41;7312105;19;129218;-42
2023/06/08 10:28:04;;;;;;;48.13;7.13;;;;;;;23.78;60.18;99445.75;7311281;19;129212;-39
2023/06/08 10:30:39;;;;;;;66.13;8.68;;;;;;;23.87;59.39;99445.63;7312132;19;129098;-40
2023/06/08 10:33:08;;;;;;;53.03;7.43;;;;;;;23.88;59.53;99441.19;7311858;19;130118;-38
2023/06/08 10:35:33;;;;;;;54.67;7.15;;;;;;;23.80;58.80;99433.28;7311910;19;129325;-40
2023/06/08 10:38:08;;;;;;;20.83;5.90;;;;;;;23.70;60.14;99438.63;7314745;19;129161;-39
2023/06/08 10:40:41;;;;;;;69.95;8.23;;;;;;;23.72;60.49;99431.44;7313126;19;129099;-42
2023/06/08 10:43:08;;;;;;;34.28;6.43;;;;;;;23.65;60.24;99427.78;7311607;19;128968;-41
2023/06/08 10:45:36;;;;;;;;;;;;;;;23.73;60.94;99424.38;7311351;19;130298;-40
2023/06/08 10:48:14;;;;;;;48.65;7.38;;;;;;;23.76;60.47;99427.53;7310885;19;129647;-38
2023/06/08 10:50:42;;;;;;;68.63;8.20;;;;;;;23.82;59.77;99431.31;7312653;19;129339;-39
2023/06/08 10:53:08;;;;;;;24.63;5.97;;;;;;;23.71;60.58;99415.84;7312767;19;128944;-41
2023/06/08 10:55:34;;;;;;;36.00;6.60;;;;;;;23.57;60.40;99400.69;7310256;19;129225;-40
2023/06/08 10:58:15;;;;;;;60.40;7.80;;;;;;;23.72;61.32;99415.69;7311872;19;129119;-39
2023/06/08 11:00:45;;;;;;;62.75;7.43;;;;;;;23.76;60.31;99406.53;7312755;19;129078;-40
2023/06/08 11:03:20;;;;;;;47.92;6.80;;;;;;;23.81;60.15;99409.50;7310902;19;130406;-41
2023/06/08 11:05:50;;;;;;;32.08;6.18;;;;;;;23.80;60.04;99407.84;7310279;19;129107;-39
2023/06/08 11:08:16;;;;;;;22.30;6.03;;;;;;;23.79;59.62;99397.50;7308687;19;129581;-41
2023/06/08 11:10:43;;;;;;;46.00;6.35;;;;;;;23.80;59.62;99392.09;7311831;19;128893;-40
2023/06/08 11:13:16;;;;;;;51.88;7.28;;;;;;;23.79;60.87;99395.69;7312588;19;129780;-40
2023/06/08 11:15:43;;;;;;;35.65;6.32;;;;;;;23.78;59.75;99388.00;7309985;19;129693;-41
2023/06/08 11:18:10;;;;;;;62.08;7.15;;;;;;;23.74;59.08;99387.47;7311031;19;129455;-38
2023/06/08 11:20:37;;;;;;;47.13;6.85;;;;;;;23.80;60.10;99386.84;7311295;19;128971;-39